Time;durP1;ratioP1;P1;durP2;ratioP2;P2;SDS_P1;SDS_P2;PMS_P1;PMS_P2;Temp;Humidity;BMP_temperature;BMP_pressure;BME280_temperature;BME280_humidity;BME280_pressure;Samples;Min_cycle;Max_cycle;Signal;HPM_P1;HPM_P2
2021/11/19 00:00:40;;;;;;;17.23;5.57;;;12.00;99.90;;;;;;5009196;28;20085;-87
2021/11/19 00:03:07;;;;;;;16.98;5.78;;;12.00;99.90;;;;;;5015811;28;20046;-86
2021/11/19 00:05:34;;;;;;;16.25;5.38;;;12.00;99.90;;;;;;5013530;28;20647;-86
2021/11/19 00:08:03;;;;;;;11.68;5.35;;;12.00;99.90;;;;;;5023652;28;20037;-86
2021/11/19 00:10:31;;;;;;;14.27;6.15;;;12.00;99.90;;;;;;5023146;28;20096;-87
2021/11/19 00:12:57;;;;;;;16.00;5.70;;;12.00;99.90;;;;;;5006206;28;20448;-86
2021/11/19 00:15:24;;;;;;;16.02;5.07;;;12.00;99.90;;;;;;5006266;28;20521;-87
2021/11/19 00:17:51;;;;;;;11.35;4.95;;;12.00;99.90;;;;;;5008709;28;20451;-87
2021/11/19 00:20:20;;;;;;;10.45;4.95;;;12.00;99.90;;;;;;5009036;28;20049;-86
2021/11/19 00:22:48;;;;;;;14.52;5.53;;;12.00;99.90;;;;;;5021194;28;20049;-86
2021/11/19 00:25:15;;;;;;;11.77;4.55;;;12.00;99.90;;;;;;5012569;28;20568;-86
2021/11/19 00:27:41;;;;;;;13.02;4.60;;;12.00;99.90;;;;;;5005819;28;20057;-85
2021/11/19 00:30:11;;;;;;;11.10;4.30;;;12.00;99.90;;;;;;5005737;28;20058;-86
2021/11/19 00:32:39;;;;;;;10.40;4.22;;;12.00;99.90;;;;;;5009055;28;20131;-87
2021/11/19 00:35:08;;;;;;;10.82;4.53;;;12.00;99.90;;;;;;5014113;28;20141;-87
2021/11/19 00:37:35;;;;;;;12.75;4.45;;;12.00;99.90;;;;;;5007537;28;20155;-87
2021/11/19 00:40:08;;;;;;;13.35;4.60;;;12.00;99.90;;;;;;5009476;28;20548;-86
2021/11/19 00:42:35;;;;;;;12.25;4.13;;;12.00;99.90;;;;;;5005626;28;20054;-87
2021/11/19 00:45:03;;;;;;;16.38;4.80;;;12.00;99.90;;;;;;5021138;28;20057;-86
2021/11/19 00:47:30;;;;;;;13.35;4.80;;;12.10;99.90;;;;;;5025096;28;20143;-86
2021/11/19 00:49:59;;;;;;;12.43;4.07;;;12.00;99.90;;;;;;5025147;28;20065;-87
2021/11/19 00:52:27;;;;;;;12.23;4.63;;;12.10;99.90;;;;;;5026824;28;20145;-86
2021/11/19 00:54:54;;;;;;;13.98;3.97;;;12.10;99.90;;;;;;5037127;28;20123;-86
2021/11/19 00:57:21;;;;;;;11.98;4.50;;;12.10;99.90;;;;;;5026523;28;20053;-86
2021/11/19 00:59:48;;;;;;;9.48;3.95;;;12.10;99.90;;;;;;5025561;28;20409;-86
2021/11/19 01:02:21;;;;;;;12.55;4.00;;;12.10;99.90;;;;;;5017433;28;20547;-86
2021/11/19 01:04:49;;;;;;;18.77;3.65;;;12.10;99.90;;;;;;5019824;28;20494;-86
2021/11/19 01:07:18;;;;;;;9.73;3.67;;;12.10;99.90;;;;;;5008326;28;20124;-86
2021/11/19 01:09:54;;;;;;;11.93;3.75;;;12.10;99.90;;;;;;5024551;28;20084;-86
2021/11/19 01:12:25;;;;;;;11.40;2.95;;;12.10;99.90;;;;;;5011732;28;20100;-87
2021/11/19 01:14:56;;;;;;;9.32;3.00;;;12.20;99.90;;;;;;5006702;28;20577;-86
2021/11/19 01:17:28;;;;;;;11.23;3.47;;;12.10;99.90;;;;;;5005335;28;20086;-87
2021/11/19 01:20:01;;;;;;;10.90;2.97;;;12.20;99.90;;;;;;5011695;28;20557;-86
2021/11/19 01:22:31;;;;;;;8.93;3.95;;;12.20;99.90;;;;;;5019288;28;20459;-87
2021/11/19 01:24:59;;;;;;;10.93;3.17;;;12.20;99.90;;;;;;5014410;28;20560;-87
2021/11/19 01:27:26;;;;;;;12.48;3.72;;;12.20;99.90;;;;;;5025321;28;20100;-87
2021/11/19 01:29:53;;;;;;;8.73;2.88;;;12.20;99.90;;;;;;5024376;28;20546;-87
2021/11/19 01:32:25;;;;;;;9.15;3.03;;;12.20;99.90;;;;;;5020171;28;20092;-86
2021/11/19 01:34:53;;;;;;;18.27;3.72;;;12.20;99.90;;;;;;5011238;28;20534;-87
2021/11/19 01:37:20;;;;;;;11.93;3.28;;;12.20;99.90;;;;;;5006170;28;20053;-86
2021/11/19 01:39:47;;;;;;;11.82;3.10;;;12.20;99.90;;;;;;5007249;28;20513;-87
2021/11/19 01:42:48;;;;;;;12.18;3.30;;;12.20;99.90;;;;;;5016009;28;20049;-87
2021/11/19 01:45:17;;;;;;;12.60;3.08;;;12.30;99.90;;;;;;5025958;28;20091;-86
2021/11/19 01:47:49;;;;;;;11.02;3.72;;;12.20;99.90;;;;;;5023816;28;20077;-87
2021/11/19 01:50:21;;;;;;;14.65;3.15;;;12.20;99.90;;;;;;5008556;28;20050;-87
2021/11/19 01:53:17;;;;;;;13.60;3.78;;;12.30;99.90;;;;;;5018869;28;20081;-87
2021/11/19 01:55:51;;;;;;;14.40;3.50;;;12.30;99.90;;;;;;5021663;28;20115;-86
2021/11/19 01:58:40;;;;;;;12.00;2.95;;;12.30;99.90;;;;;;5029184;28;20296;-86
2021/11/19 02:01:19;;;;;;;17.17;5.00;;;12.30;99.90;;;;;;5015322;28;20149;-86
2021/11/19 02:03:53;;;;;;;9.25;2.85;;;12.30;99.90;;;;;;5025990;28;20132;-87
2021/11/19 02:06:24;;;;;;;14.77;3.83;;;12.30;99.90;;;;;;5021223;28;20139;-87
2021/11/19 02:08:52;;;;;;;15.68;3.55;;;12.30;99.90;;;;;;5027654;28;20077;-86
2021/11/19 02:11:37;;;;;;;25.27;4.20;;;12.30;99.90;;;;;;5027398;28;20186;-87
2021/11/19 02:14:16;;;;;;;14.48;3.95;;;12.30;99.90;;;;;;5042883;28;20057;-86
2021/11/19 02:16:49;;;;;;;12.73;4.68;;;12.30;99.90;;;;;;5027507;28;20076;-86
2021/11/19 02:19:41;;;;;;;18.27;4.03;;;12.30;99.90;;;;;;5028098;28;20049;-86
2021/11/19 02:22:18;;;;;;;17.33;4.30;;;12.30;99.90;;;;;;5015223;28;20046;-87
2021/11/19 02:24:47;;;;;;;12.40;3.72;;;12.30;99.90;;;;;;5015238;28;20103;-86
2021/11/19 02:27:24;;;;;;;18.55;3.78;;;12.40;99.90;;;;;;5008281;28;20081;-87
2021/11/19 02:30:09;;;;;;;17.00;4.00;;;12.40;99.90;;;;;;5008739;28;20077;-86
2021/11/19 02:32:43;;;;;;;20.38;3.97;;;12.40;99.90;;;;;;5016546;28;20049;-86
2021/11/19 02:35:19;;;;;;;13.75;3.90;;;12.40;99.90;;;;;;5025354;28;20081;-87
2021/11/19 02:37:57;;;;;;;18.20;4.28;;;12.40;99.90;;;;;;5027994;28;20084;-87
2021/11/19 02:40:29;;;;;;;17.67;4.22;;;12.50;99.90;;;;;;5019059;28;20062;-87
2021/11/19 02:43:09;;;;;;;18.52;4.60;;;12.50;99.90;;;;;;5007639;28;20081;-86
2021/11/19 02:45:40;;;;;;;12.63;4.28;;;12.40;99.90;;;;;;5009168;28;20501;-87
2021/11/19 02:48:11;;;;;;;18.83;4.57;;;12.50;99.90;;;;;;5019458;28;20138;-87
2021/11/19 02:50:38;;;;;;;26.92;5.55;;;12.50;99.90;;;;;;5018387;28;20073;-86
2021/11/19 02:53:08;;;;;;;26.77;4.63;;;12.50;99.90;;;;;;5017699;28;20167;-87
2021/11/19 02:55:39;;;;;;;20.98;4.55;;;12.50;99.90;;;;;;5013122;28;20084;-87
2021/11/19 02:58:09;;;;;;;30.30;5.60;;;12.50;99.90;;;;;;5008567;28;20050;-87
2021/11/19 03:00:48;;;;;;;25.30;5.18;;;12.40;99.90;;;;;;5011814;28;20112;-87
2021/11/19 03:03:15;;;;;;;23.60;4.93;;;12.50;99.90;;;;;;5031412;28;20463;-87
2021/11/19 03:05:42;;;;;;;27.83;6.28;;;12.40;99.90;;;;;;5037527;28;20049;-87
2021/11/19 03:08:09;;;;;;;23.38;4.97;;;12.40;99.90;;;;;;5025604;28;20067;-87
2021/11/19 03:10:41;;;;;;;37.83;5.38;;;12.40;99.90;;;;;;5021491;28;20110;-87
2021/11/19 03:13:08;;;;;;;30.95;5.32;;;12.50;99.90;;;;;;5026868;28;20080;-88
2021/11/19 03:15:43;;;;;;;18.38;6.00;;;12.50;99.90;;;;;;5027218;28;20365;-87
2021/11/19 03:18:13;;;;;;;26.15;6.05;;;12.50;99.90;;;;;;5027531;28;20084;-86
2021/11/19 03:20:43;;;;;;;18.25;4.88;;;12.50;99.90;;;;;;5020624;28;20056;-87
2021/11/19 03:23:10;;;;;;;31.70;5.45;;;12.50;99.90;;;;;;5025123;28;20046;-87
2021/11/19 03:25:39;;;;;;;24.77;5.40;;;12.50;99.90;;;;;;5011459;28;20156;-88
2021/11/19 03:28:08;;;;;;;30.45;6.20;;;12.50;99.90;;;;;;5008005;28;20057;-87
2021/11/19 03:30:38;;;;;;;22.92;4.43;;;12.50;99.90;;;;;;5021886;28;20458;-87
2021/11/19 03:33:07;;;;;;;20.60;4.55;;;12.50;99.90;;;;;;5021728;28;20497;-87
2021/11/19 03:35:34;;;;;;;29.38;5.95;;;12.50;99.90;;;;;;5036944;28;20491;-87
2021/11/19 03:38:02;;;;;;;23.25;4.53;;;12.50;99.90;;;;;;5026301;28;20081;-87
2021/11/19 03:40:37;;;;;;;23.35;4.70;;;12.50;99.90;;;;;;5024073;28;20057;-87
2021/11/19 03:43:21;;;;;;;24.60;5.00;;;12.50;99.90;;;;;;5007973;28;20483;-86
2021/11/19 03:45:52;;;;;;;11.60;3.60;;;12.50;99.90;;;;;;5040191;28;20144;-87
2021/11/19 03:48:20;;;;;;;22.27;4.70;;;12.60;99.90;;;;;;5026264;28;20057;-88
2021/11/19 03:50:54;;;;;;;22.40;3.92;;;12.60;99.90;;;;;;5020094;28;20471;-87
2021/11/19 03:53:24;;;;;;;17.17;4.30;;;12.60;99.90;;;;;;5013218;28;20053;-87
2021/11/19 03:55:52;;;;;;;22.95;3.92;;;12.60;99.90;;;;;;5043025;28;20481;-87
2021/11/19 03:58:24;;;;;;;25.02;4.03;;;12.60;99.90;;;;;;5026088;28;20406;-87
2021/11/19 04:00:55;;;;;;;18.80;4.07;;;12.60;99.90;;;;;;5025061;28;20049;-86
2021/11/19 04:03:22;;;;;;;17.65;3.03;;;12.60;99.90;;;;;;5018237;28;20144;-86
2021/11/19 04:05:49;;;;;;;21.70;3.63;;;12.60;99.90;;;;;;5042131;28;20057;-87
2021/11/19 04:08:16;;;;;;;22.80;3.58;;;12.60;99.90;;;;;;5027331;28;20169;-87
2021/11/19 04:10:44;;;;;;;18.13;3.67;;;12.50;99.90;;;;;;5021190;28;20129;-86
2021/11/19 04:13:11;;;;;;;24.27;3.40;;;12.50;99.90;;;;;;5009714;28;20455;-86
2021/11/19 04:15:42;;;;;;;19.67;3.30;;;12.50;99.90;;;;;;5007498;28;20149;-86
2021/11/19 04:18:10;;;;;;;15.30;3.70;;;12.50;99.90;;;;;;5005927;28;20157;-87
2021/11/19 04:20:38;;;;;;;16.38;2.92;;;12.60;99.90;;;;;;5006854;28;20096;-85
2021/11/19 04:23:11;;;;;;;23.48;3.00;;;12.50;99.90;;;;;;5018121;28;20054;-86
2021/11/19 04:25:40;;;;;;;13.93;3.25;;;12.50;99.90;;;;;;5009997;28;20046;-86
2021/11/19 04:28:07;;;;;;;15.55;3.70;;;12.50;99.90;;;;;;5009976;28;20060;-87
2021/11/19 04:30:43;;;;;;;21.77;3.30;;;12.50;99.90;;;;;;5019417;28;20089;-86
2021/11/19 04:33:13;;;;;;;22.88;3.95;;;12.50;99.90;;;;;;5021333;28;20056;-86
2021/11/19 04:35:39;;;;;;;18.85;3.95;;;12.50;99.90;;;;;;5027121;28;20069;-87
2021/11/19 04:38:11;;;;;;;14.77;3.55;;;12.50;99.90;;;;;;5021258;28;20046;-87
2021/11/19 04:40:38;;;;;;;19.52;4.53;;;12.60;99.90;;;;;;5034913;28;20057;-86
2021/11/19 04:43:10;;;;;;;15.10;3.53;;;12.60;99.90;;;;;;5031508;28;20038;-88
2021/11/19 04:45:38;;;;;;;14.27;3.88;;;12.60;99.90;;;;;;5031194;28;20041;-87
2021/11/19 04:48:20;;;;;;;14.73;3.30;;;12.60;99.90;;;;;;5032309;28;20073;-86
2021/11/19 04:50:49;;;;;;;30.80;4.50;;;12.60;99.90;;;;;;5033392;28;20046;-86
2021/11/19 04:53:19;;;;;;;15.30;3.25;;;12.70;99.90;;;;;;5034626;28;20061;-85
2021/11/19 04:55:46;;;;;;;26.48;4.47;;;12.70;99.90;;;;;;5031265;28;20064;-87
2021/11/19 04:58:14;;;;;;;15.38;3.40;;;12.70;99.90;;;;;;5031853;28;20513;-86
2021/11/19 05:00:49;;;;;;;24.23;3.80;;;12.70;99.90;;;;;;5029279;28;20046;-87
2021/11/19 05:03:18;;;;;;;19.40;3.70;;;12.70;99.90;;;;;;5038990;28;20057;-87
2021/11/19 05:05:52;;;;;;;14.60;3.15;;;12.70;99.90;;;;;;5028075;28;20576;-88
2021/11/19 05:08:22;;;;;;;19.60;3.10;;;12.80;99.90;;;;;;5029343;28;20091;-86
2021/11/19 05:10:51;;;;;;;12.07;2.67;;;12.80;99.90;;;;;;5016700;28;20112;-87
2021/11/19 05:13:19;;;;;;;24.35;4.47;;;12.80;99.90;;;;;;5009084;28;20054;-86
2021/11/19 05:15:53;;;;;;;17.05;3.42;;;12.80;99.90;;;;;;5013790;28;20149;-87
2021/11/19 05:18:22;;;;;;;21.00;3.47;;;12.80;99.90;;;;;;5014005;28;20065;-86
2021/11/19 05:20:50;;;;;;;15.27;2.97;;;12.70;99.90;;;;;;5011429;28;20055;-87
2021/11/19 05:23:18;;;;;;;21.08;3.17;;;12.70;99.90;;;;;;5020463;28;20038;-85
2021/11/19 05:25:45;;;;;;;22.80;3.55;;;12.80;99.90;;;;;;5028817;28;20077;-85
2021/11/19 05:28:14;;;;;;;18.00;3.67;;;12.80;99.90;;;;;;5012251;28;20081;-86
2021/11/19 05:30:42;;;;;;;17.95;3.28;;;12.80;99.90;;;;;;5046749;28;20414;-86
2021/11/19 05:33:12;;;;;;;17.08;3.03;;;12.80;99.90;;;;;;5016575;28;20548;-87
2021/11/19 05:35:54;;;;;;;26.40;3.13;;;12.90;99.90;;;;;;5032698;28;20583;-86
2021/11/19 05:38:23;;;;;;;13.88;3.10;;;12.90;99.90;;;;;;5023416;28;20103;-87
2021/11/19 05:40:51;;;;;;;14.82;2.80;;;12.90;99.90;;;;;;5019016;28;20141;-86
2021/11/19 05:43:22;;;;;;;18.98;3.47;;;12.90;99.90;;;;;;5010737;28;20143;-86
2021/11/19 05:45:49;;;;;;;21.95;4.05;;;12.90;99.90;;;;;;5020966;28;20136;-86
2021/11/19 05:48:16;;;;;;;14.63;3.30;;;12.90;99.90;;;;;;5030181;28;20053;-86
2021/11/19 05:50:45;;;;;;;14.48;3.08;;;13.00;99.90;;;;;;5030316;28;20050;-86
2021/11/19 05:53:12;;;;;;;17.33;3.58;;;12.90;99.90;;;;;;5026922;28;20050;-87
2021/11/19 05:55:41;;;;;;;17.13;3.05;;;12.90;99.90;;;;;;5033758;28;20103;-86
2021/11/19 05:58:08;;;;;;;19.58;3.80;;;12.90;99.90;;;;;;5030337;28;20065;-86
2021/11/19 06:00:42;;;;;;;31.25;3.97;;;12.90;99.90;;;;;;5020674;28;20108;-82
2021/11/19 06:03:09;;;;;;;13.93;3.35;;;12.90;99.90;;;;;;5030283;28;20072;-85
2021/11/19 06:05:36;;;;;;;19.30;3.58;;;12.80;99.90;;;;;;5021262;28;20049;-86
2021/11/19 06:08:05;;;;;;;19.77;4.07;;;12.80;99.90;;;;;;5013148;28;20695;-87
2021/11/19 06:10:37;;;;;;;22.98;5.22;;;12.80;99.90;;;;;;5023509;28;20538;-89
2021/11/19 06:13:13;;;;;;;17.73;3.20;;;12.70;99.90;;;;;;5019168;28;20073;-87
2021/11/19 06:15:47;;;;;;;17.50;4.45;;;12.70;99.90;;;;;;5025464;28;20100;-87
2021/11/19 06:18:28;;;;;;;23.20;4.43;;;12.60;99.90;;;;;;5017290;28;20441;-87
2021/11/19 06:20:59;;;;;;;23.60;5.13;;;12.60;99.90;;;;;;5028687;28;20533;-87
2021/11/19 06:23:39;;;;;;;12.02;3.17;;;12.70;99.90;;;;;;5019236;28;20410;-87
2021/11/19 06:26:10;;;;;;;12.75;3.60;;;12.60;99.90;;;;;;5029252;28;20053;-87
2021/11/19 06:28:41;;;;;;;19.95;3.67;;;12.60;99.90;;;;;;5028549;28;20111;-88
2021/11/19 06:31:14;;;;;;;22.33;4.15;;;12.60;99.90;;;;;;5022501;28;20089;-88
2021/11/19 06:33:41;;;;;;;25.70;5.18;;;12.70;99.90;;;;;;5018340;28;20061;-88
2021/11/19 06:36:09;;;;;;;15.23;3.83;;;12.60;99.90;;;;;;5030077;28;20057;-88
2021/11/19 06:38:37;;;;;;;14.45;4.00;;;12.60;99.90;;;;;;5021345;28;20077;-87
2021/11/19 06:41:06;;;;;;;17.25;3.92;;;12.60;99.90;;;;;;5025689;28;20084;-90
2021/11/19 06:43:34;;;;;;;19.65;4.68;;;12.70;99.90;;;;;;5024136;28;20046;-89
2021/11/19 06:46:01;;;;;;;13.35;3.97;;;12.70;99.90;;;;;;5018832;28;20042;-88
2021/11/19 06:48:28;;;;;;;14.10;5.10;;;12.80;99.90;;;;;;5024511;28;20077;-89
2021/11/19 06:50:55;;;;;;;20.33;4.30;;;12.80;99.90;;;;;;5048068;28;20596;-90
2021/11/19 06:53:26;;;;;;;29.88;7.65;;;12.90;99.90;;;;;;5014800;28;20395;-89
2021/11/19 06:55:52;;;;;;;26.17;4.07;;;13.00;99.90;;;;;;5013977;28;20058;-88
2021/11/19 06:58:19;;;;;;;20.42;4.20;;;12.80;99.90;;;;;;5018886;28;20095;-89
2021/11/19 07:00:46;;;;;;;15.27;3.70;;;12.80;99.90;;;;;;5030502;28;20444;-89
2021/11/19 07:03:16;;;;;;;14.23;3.50;;;12.90;99.90;;;;;;5020718;28;20041;-89
2021/11/19 07:05:43;;;;;;;19.98;3.60;;;12.90;99.90;;;;;;5014397;28;20050;-88
2021/11/19 07:08:11;;;;;;;18.33;4.22;;;13.00;99.90;;;;;;5032150;28;20076;-89
2021/11/19 07:10:41;;;;;;;19.05;4.13;;;12.90;99.90;;;;;;5020493;28;20099;-89
2021/11/19 07:13:08;;;;;;;14.93;3.45;;;12.90;99.90;;;;;;5033181;28;20399;-89
2021/11/19 07:15:35;;;;;;;23.55;3.88;;;13.00;99.90;;;;;;5030552;28;20136;-87
2021/11/19 07:18:03;;;;;;;14.98;3.33;;;13.00;99.90;;;;;;5031163;28;20049;-88
2021/11/19 07:20:31;;;;;;;19.35;4.50;;;13.00;99.90;;;;;;5026185;28;20133;-89
2021/11/19 07:22:58;;;;;;;18.17;3.63;;;13.00;99.90;;;;;;5025501;28;20375;-89
2021/11/19 07:25:35;;;;;;;23.17;5.28;;;13.00;99.90;;;;;;5012504;28;20548;-88
2021/11/19 07:28:02;;;;;;;26.38;4.47;;;13.00;99.90;;;;;;5012405;28;20042;-89
2021/11/19 07:30:46;;;;;;;18.88;3.83;;;13.00;99.90;;;;;;5013094;28;20100;-89
2021/11/19 07:33:14;;;;;;;21.33;3.95;;;13.00;99.90;;;;;;5031029;28;20084;-89
2021/11/19 07:35:42;;;;;;;15.85;4.80;;;13.00;99.90;;;;;;5032232;28;20410;-89
2021/11/19 07:38:09;;;;;;;22.83;4.53;;;13.00;99.90;;;;;;5030748;28;20041;-89
2021/11/19 07:40:44;;;;;;;17.50;4.55;;;13.00;99.90;;;;;;5023287;28;20092;-89
2021/11/19 07:43:12;;;;;;;22.30;4.80;;;13.10;99.90;;;;;;5013826;28;20045;-90
2021/11/19 07:45:40;;;;;;;21.58;4.80;;;13.00;99.90;;;;;;5020674;28;20544;-89
2021/11/19 07:48:13;;;;;;;18.60;4.93;;;13.10;99.90;;;;;;5031688;28;20080;-89
2021/11/19 07:50:47;;;;;;;18.10;4.63;;;13.10;99.90;;;;;;5029730;28;20387;-90
2021/11/19 07:53:16;;;;;;;22.48;5.60;;;13.10;99.90;;;;;;5035748;28;20046;-89
2021/11/19 07:55:45;;;;;;;18.63;4.47;;;13.20;99.90;;;;;;5022989;28;20104;-90
2021/11/19 07:58:12;;;;;;;21.60;5.55;;;13.30;99.90;;;;;;5012864;28;20487;-89
2021/11/19 08:00:45;;;;;;;23.80;6.55;;;13.20;99.90;;;;;;5021817;28;20045;-88
2021/11/19 08:03:13;;;;;;;19.48;5.45;;;13.30;99.90;;;;;;5031977;28;20052;-88
2021/11/19 08:05:45;;;;;;;21.77;4.78;;;13.20;99.90;;;;;;5048794;28;20532;-89
2021/11/19 08:08:12;;;;;;;26.73;4.95;;;13.20;99.90;;;;;;5032932;28;20041;-89
2021/11/19 08:10:39;;;;;;;26.27;4.85;;;13.20;99.90;;;;;;5048765;28;20139;-89
2021/11/19 08:13:06;;;;;;;29.45;5.90;;;13.20;99.90;;;;;;5049629;28;20092;-90
2021/11/19 08:15:33;;;;;;;15.77;4.55;;;13.10;99.90;;;;;;5039281;28;20491;-88
2021/11/19 08:18:02;;;;;;;22.33;5.13;;;13.10;99.90;;;;;;5014489;28;20077;-89
2021/11/19 08:20:36;;;;;;;26.55;5.30;;;13.20;99.90;;;;;;5013637;28;20453;-89
2021/11/19 08:23:10;;;;;;;22.33;5.55;;;13.20;99.90;;;;;;5013117;28;20757;-89
2021/11/19 08:25:37;;;;;;;21.30;4.55;;;13.20;99.90;;;;;;5022535;28;20050;-89
2021/11/19 08:28:26;;;;;;;20.75;5.07;;;13.20;99.90;;;;;;5031647;28;20143;-90
2021/11/19 08:30:53;;;;;;;24.50;4.10;;;13.30;99.90;;;;;;5017627;28;20049;-89
2021/11/19 08:33:20;;;;;;;20.35;4.43;;;13.20;99.90;;;;;;5027220;28;20501;-89
2021/11/19 08:35:47;;;;;;;34.97;7.05;;;13.30;99.90;;;;;;5014328;28;20132;-90
2021/11/19 08:38:20;;;;;;;20.17;3.95;;;13.30;99.90;;;;;;5011841;28;20058;-89
2021/11/19 08:40:47;;;;;;;19.20;4.25;;;13.30;99.90;;;;;;5020167;28;20133;-90
2021/11/19 08:43:25;;;;;;;13.98;4.55;;;13.30;99.90;;;;;;5032319;28;20054;-90
2021/11/19 08:45:53;;;;;;;24.88;6.05;;;13.30;99.90;;;;;;5020735;28;20050;-90
2021/11/19 08:48:26;;;;;;;24.33;4.22;;;13.40;99.90;;;;;;5012996;28;20045;-90
2021/11/19 08:50:55;;;;;;;19.45;5.10;;;13.40;99.90;;;;;;5015510;28;20056;-90
2021/11/19 08:53:22;;;;;;;21.10;4.60;;;13.40;99.90;;;;;;5035213;28;20118;-91
2021/11/19 08:55:52;;;;;;;19.45;4.60;;;13.40;99.90;;;;;;5034403;28;20072;-89
2021/11/19 08:58:25;;;;;;;18.45;4.00;;;13.40;99.90;;;;;;5031851;28;20084;-90
2021/11/19 09:00:54;;;;;;;24.45;4.85;;;13.40;99.90;;;;;;5015646;28;20104;-89
2021/11/19 09:03:22;;;;;;;17.88;3.80;;;13.40;99.90;;;;;;5024429;28;20441;-87
2021/11/19 09:05:50;;;;;;;16.75;4.03;;;13.40;99.90;;;;;;5024637;28;20089;-90
2021/11/19 09:08:23;;;;;;;20.15;4.22;;;13.50;99.90;;;;;;5016090;28;20069;-90
2021/11/19 09:10:52;;;;;;;25.45;4.88;;;13.50;99.90;;;;;;5025888;28;20076;-90
2021/11/19 09:13:20;;;;;;;19.65;4.00;;;13.50;99.90;;;;;;5034348;28;20049;-89
2021/11/19 09:15:47;;;;;;;25.25;4.55;;;13.50;99.90;;;;;;5034996;28;20405;-91
2021/11/19 09:18:19;;;;;;;18.33;4.75;;;13.50;99.90;;;;;;5034104;28;20064;-90
2021/11/19 09:21:09;;;;;;;25.40;4.85;;;13.40;99.90;;;;;;5019381;28;20100;-89
2021/11/19 09:23:48;;;;;;;21.73;4.18;;;13.40;99.90;;;;;;5015669;28;20133;-90
2021/11/19 09:26:20;;;;;;;23.63;5.68;;;13.50;99.90;;;;;;5014559;28;20123;-90
2021/11/19 09:28:50;;;;;;;24.80;4.85;;;13.40;99.90;;;;;;5024904;28;20081;-89
2021/11/19 09:31:19;;;;;;;26.30;4.00;;;13.50;99.90;;;;;;5044786;28;20084;-90
2021/11/19 09:33:48;;;;;;;26.55;5.00;;;13.40;99.90;;;;;;5046354;28;20057;-89
2021/11/19 09:36:17;;;;;;;21.95;3.70;;;13.50;99.90;;;;;;5050856;28;20897;-90
2021/11/19 09:38:45;;;;;;;20.63;3.97;;;13.40;99.90;;;;;;5034175;28;20053;-90
2021/11/19 09:41:52;;;;;;;28.15;4.63;;;13.50;99.90;;;;;;5021167;28;20141;-90
2021/11/19 09:44:55;;;;;;;19.10;4.13;;;13.40;99.90;;;;;;4993797;28;20085;-88
2021/11/19 09:47:26;;;;;;;30.77;4.07;;;13.50;99.90;;;;;;5016813;28;20066;-89
2021/11/19 09:50:05;;;;;;;21.55;3.97;;;13.50;99.90;;;;;;5038693;28;20041;-87
2021/11/19 09:52:59;;;;;;;20.27;3.90;;;13.50;99.90;;;;;;5055409;28;20053;-88
2021/11/19 09:55:29;;;;;;;18.85;4.50;;;13.50;99.90;;;;;;5047106;28;20041;-88
2021/11/19 09:58:14;;;;;;;23.85;5.50;;;13.50;99.90;;;;;;5041786;28;20041;-88
2021/11/19 10:01:18;;;;;;;33.67;5.25;;;13.50;99.90;;;;;;5051791;28;20045;-90
2021/11/19 10:04:07;;;;;;;15.68;4.28;;;13.70;99.90;;;;;;5037069;28;20057;-88
2021/11/19 10:06:49;;;;;;;19.60;4.10;;;13.60;99.90;;;;;;5047862;28;20058;-90
2021/11/19 10:09:25;;;;;;;14.75;3.83;;;13.70;99.90;;;;;;5027084;28;20061;-89
2021/11/19 10:12:26;;;;;;;18.13;3.50;;;13.70;99.90;;;;;;5031965;28;20052;-89
2021/11/19 10:15:06;;;;;;;23.70;3.55;;;13.70;99.90;;;;;;5031942;28;20046;-90
2021/11/19 10:18:07;;;;;;;23.70;4.50;;;13.70;99.90;;;;;;5032623;28;20101;-89
2021/11/19 10:21:13;;;;;;;18.27;3.53;;;13.70;99.90;;;;;;5028250;28;20054;-89
2021/11/19 10:24:19;;;;;;;21.88;3.92;;;13.70;99.90;;;;;;4987972;28;20281;-89
2021/11/19 10:26:48;;;;;;;21.40;3.75;;;13.70;99.90;;;;;;5017367;28;20049;-89
2021/11/19 10:29:27;;;;;;;16.48;3.97;;;13.60;99.90;;;;;;5029263;28;20128;-89
2021/11/19 10:31:57;;;;;;;14.52;3.97;;;13.60;99.90;;;;;;5033422;28;20398;-89
2021/11/19 10:35:03;;;;;;;28.88;4.15;;;13.60;99.90;;;;;;5029481;28;20447;-91
2021/11/19 10:38:04;;;;;;;20.55;3.35;;;13.60;99.90;;;;;;5028455;28;20491;-90
2021/11/19 10:40:58;;;;;;;21.25;3.65;;;13.70;99.90;;;;;;5040996;28;20430;-90
2021/11/19 10:44:10;;;;;;;14.80;3.55;;;13.70;99.90;;;;;;5039515;28;20073;-90
2021/11/19 10:47:04;;;;;;;23.95;4.18;;;13.80;99.90;;;;;;5009620;28;20427;-89
2021/11/19 10:50:08;;;;;;;15.15;3.38;;;13.70;99.90;;;;;;5049243;28;20092;-90
2021/11/19 10:52:59;;;;;;;18.83;3.58;;;13.80;99.90;;;;;;5030137;28;20100;-90
2021/11/19 10:56:19;;;;;;;20.58;3.53;;;13.80;99.90;;;;;;5013930;28;20104;-90
2021/11/19 10:58:53;;;;;;;14.70;3.75;;;13.80;99.90;;;;;;5003928;28;20474;-90
2021/11/19 11:02:03;;;;;;;12.10;2.83;;;13.80;99.90;;;;;;5031132;28;20053;-90
2021/11/19 11:04:56;;;;;;;15.82;2.58;;;13.80;99.90;;;;;;5012907;28;20466;-90
2021/11/19 11:07:28;;;;;;;32.15;3.95;;;13.90;99.90;;;;;;5022273;28;20140;-90
2021/11/19 11:10:00;;;;;;;22.30;3.42;;;13.80;99.90;;;;;;5028946;28;20077;-90
2021/11/19 11:12:32;;;;;;;10.98;2.97;;;13.90;99.90;;;;;;5028787;28;20074;-90
2021/11/19 11:15:14;;;;;;;22.00;4.80;;;13.90;99.90;;;;;;5011970;28;20077;-90
2021/11/19 11:18:09;;;;;;;13.02;2.85;;;13.90;99.90;;;;;;5012129;28;20147;-89
2021/11/19 11:20:58;;;;;;;12.43;3.53;;;13.90;99.90;;;;;;5020478;28;20144;-90
2021/11/19 11:23:50;;;;;;;25.20;4.25;;;14.00;99.90;;;;;;5033150;28;20129;-90
2021/11/19 11:26:17;;;;;;;28.95;4.60;;;14.00;99.90;;;;;;5031830;28;20108;-90
2021/11/19 11:28:54;;;;;;;21.00;4.07;;;14.00;99.90;;;;;;5030852;28;20091;-90
2021/11/19 11:31:52;;;;;;;18.30;3.10;;;14.00;99.90;;;;;;5029625;28;20045;-89
2021/11/19 11:34:24;;;;;;;16.75;3.38;;;13.90;99.90;;;;;;5048775;28;20052;-89
2021/11/19 11:37:04;;;;;;;15.48;4.35;;;14.00;99.90;;;;;;5029943;28;20096;-88
2021/11/19 11:39:37;;;;;;;16.67;3.60;;;14.00;99.90;;;;;;5031866;28;20552;-89
2021/11/19 11:42:10;;;;;;;22.90;3.90;;;13.90;99.90;;;;;;5031699;28;20045;-89
2021/11/19 11:44:44;;;;;;;14.18;3.33;;;13.90;99.90;;;;;;5031474;28;20096;-89
2021/11/19 11:47:18;;;;;;;17.45;3.50;;;13.90;99.90;;;;;;5016842;28;20050;-89
2021/11/19 11:49:52;;;;;;;15.82;3.33;;;13.90;99.90;;;;;;5013606;28;20042;-89
2021/11/19 11:52:54;;;;;;;18.52;3.83;;;13.90;99.90;;;;;;5011268;28;20054;-89
2021/11/19 11:55:29;;;;;;;20.67;4.78;;;13.90;99.90;;;;;;5012305;28;20138;-90
2021/11/19 11:58:10;;;;;;;11.98;2.47;;;13.90;99.90;;;;;;5012464;28;20061;-90
2021/11/19 12:01:15;;;;;;;17.27;3.08;;;13.90;99.90;;;;;;5020835;28;20107;-89
2021/11/19 12:03:56;;;;;;;18.10;3.47;;;13.90;99.90;;;;;;5010321;28;20107;-89
2021/11/19 12:06:27;;;;;;;22.05;3.63;;;13.90;99.90;;;;;;5031246;28;20045;-89
2021/11/19 12:09:02;;;;;;;19.17;3.67;;;13.90;99.90;;;;;;5028077;28;20070;-89
2021/11/19 12:11:38;;;;;;;15.13;3.00;;;13.90;99.90;;;;;;5022065;28;20076;-90
2021/11/19 12:14:28;;;;;;;13.25;3.33;;;13.90;99.90;;;;;;5031851;28;20081;-90
2021/11/19 12:17:13;;;;;;;11.20;3.28;;;13.90;99.90;;;;;;5004730;28;20080;-90
2021/11/19 12:20:08;;;;;;;14.07;2.78;;;14.00;99.90;;;;;;5047982;28;20092;-89
2021/11/19 12:23:07;;;;;;;19.90;3.30;;;13.90;99.90;;;;;;5048234;28;20045;-89
2021/11/19 12:25:46;;;;;;;15.55;3.60;;;13.90;99.90;;;;;;5021706;28;20313;-88
2021/11/19 12:28:20;;;;;;;20.20;3.55;;;14.00;99.90;;;;;;5031687;28;20049;-89
2021/11/19 12:31:21;;;;;;;21.35;3.50;;;13.90;99.90;;;;;;5035737;28;20053;-88
2021/11/19 12:33:55;;;;;;;15.85;2.88;;;13.90;99.90;;;;;;5055816;28;20175;-89
2021/11/19 12:36:32;;;;;;;15.13;3.40;;;13.90;99.90;;;;;;5040356;28;20033;-89
2021/11/19 12:39:02;;;;;;;17.30;3.90;;;13.90;99.90;;;;;;5046567;28;20060;-89
2021/11/19 12:41:29;;;;;;;12.20;2.90;;;13.90;99.90;;;;;;5055068;28;20068;-88
2021/11/19 12:44:11;;;;;;;14.68;3.30;;;13.90;99.90;;;;;;5035294;28;20038;-89
2021/11/19 12:46:58;;;;;;;12.88;3.33;;;13.90;99.90;;;;;;5036157;28;20045;-88
2021/11/19 12:49:43;;;;;;;17.92;3.60;;;13.90;99.90;;;;;;5012268;28;20050;-89
2021/11/19 12:52:31;;;;;;;9.95;3.35;;;13.90;99.90;;;;;;5029271;28;20054;-89
2021/11/19 12:55:11;;;;;;;18.15;3.35;;;13.90;99.90;;;;;;5014133;28;20085;-89
2021/11/19 12:58:15;;;;;;;15.27;3.22;;;14.00;99.90;;;;;;5017458;28;20049;-89
2021/11/19 13:01:19;;;;;;;14.02;3.10;;;14.00;99.90;;;;;;5023003;28;20464;-88
2021/11/19 13:04:22;;;;;;;24.25;3.78;;;14.00;99.90;;;;;;5029786;28;20058;-90
2021/11/19 13:07:28;;;;;;;19.38;3.15;;;14.10;99.90;;;;;;5012028;28;20058;-90
2021/11/19 13:10:02;;;;;;;26.10;3.63;;;14.10;99.90;;;;;;5027932;28;20097;-89
2021/11/19 13:12:57;;;;;;;17.65;3.33;;;14.00;99.90;;;;;;5011817;28;20137;-89
2021/11/19 13:15:38;;;;;;;17.30;3.92;;;14.10;99.90;;;;;;4996394;28;20060;-90